createdAt,value
2018-03-14T00:00:20.842Z,38.5
2018-03-14T00:01:19.892Z,38.68
2018-03-14T00:02:19.874Z,38.52
2018-03-14T00:03:20.168Z,38.56
2018-03-14T00:04:19.900Z,38.65
2018-03-14T00:05:19.891Z,38.5
2018-03-14T00:06:19.909Z,38.63
2018-03-14T00:07:19.877Z,38.51
2018-03-14T00:08:20.789Z,38.54
2018-03-14T00:09:19.870Z,38.55
2018-03-14T00:10:19.921Z,38.6
2018-03-14T00:11:19.875Z,38.5
2018-03-14T00:12:19.902Z,38.54
2018-03-14T00:13:19.901Z,38.54
2018-03-14T00:14:19.908Z,38.55
2018-03-14T00:15:19.894Z,38.55
2018-03-14T00:16:20.766Z,38.64
2018-03-14T00:17:19.898Z,38.5
2018-03-14T00:18:19.872Z,38.71
2018-03-14T00:19:20.043Z,38.58
2018-03-14T00:20:19.901Z,38.54
2018-03-14T00:21:19.894Z,38.56
2018-03-14T00:22:19.887Z,38.62
2018-03-14T00:23:20.234Z,38.46
2018-03-14T00:24:19.892Z,38.54
2018-03-14T00:25:19.884Z,38.53
2018-03-14T00:26:19.923Z,38.47
2018-03-14T00:27:19.903Z,38.56
2018-03-14T00:28:19.888Z,38.56
2018-03-14T00:29:20.119Z,38.51
2018-03-14T00:30:19.864Z,38.6
2018-03-14T00:31:20.583Z,38.6
2018-03-14T00:32:19.928Z,38.53
2018-03-14T00:33:19.903Z,38.58
2018-03-14T00:34:19.876Z,38.6
2018-03-14T00:35:19.906Z,38.58
2018-03-14T00:36:19.882Z,38.61
2018-03-14T00:37:19.900Z,38.61
2018-03-14T00:38:19.888Z,38.58
2018-03-14T00:39:20.441Z,38.65
2018-03-14T00:40:19.895Z,38.68
2018-03-14T00:41:19.874Z,38.56
2018-03-14T00:42:19.895Z,38.65
2018-03-14T00:43:19.909Z,38.53
2018-03-14T00:44:19.878Z,38.57
2018-03-14T00:45:20.218Z,38.63
2018-03-14T00:46:19.889Z,38.63
2018-03-14T00:47:20.728Z,38.5
2018-03-14T00:48:19.897Z,38.6
2018-03-14T00:49:19.862Z,38.75
2018-03-14T00:50:19.874Z,38.56
2018-03-14T00:51:19.876Z,38.62
2018-03-14T00:52:19.888Z,38.6
2018-03-14T00:53:19.860Z,38.57
2018-03-14T00:54:19.883Z,38.57
2018-03-14T00:55:20.651Z,38.56
2018-03-14T00:56:19.920Z,38.52
2018-03-14T00:57:19.900Z,38.54
2018-03-14T00:58:19.874Z,38.69
2018-03-14T00:59:19.876Z,38.56
2018-03-14T01:00:19.887Z,38.55
2018-03-14T01:01:20.156Z,38.63
2018-03-14T01:02:19.900Z,38.57
2018-03-14T01:03:19.909Z,38.6
2018-03-14T01:04:19.861Z,38.59
2018-03-14T01:05:19.855Z,38.52
2018-03-14T01:06:19.878Z,38.58
2018-03-14T01:07:19.851Z,38.67
2018-03-14T01:08:19.916Z,38.56
2018-03-14T01:09:19.881Z,38.53
2018-03-14T01:10:20.542Z,38.63
2018-03-14T01:11:19.884Z,38.53
2018-03-14T01:12:19.866Z,38.61
2018-03-14T01:13:19.866Z,38.63
2018-03-14T01:14:19.909Z,38.55
2018-03-14T01:15:19.912Z,38.61
2018-03-14T01:16:19.912Z,38.68
2018-03-14T01:17:20.168Z,38.58
2018-03-14T01:18:20.687Z,38.76
2018-03-14T01:19:19.882Z,38.74
2018-03-14T01:20:19.874Z,38.59
2018-03-14T01:21:20.061Z,38.69
2018-03-14T01:22:20.263Z,38.62
2018-03-14T01:23:19.906Z,38.57
2018-03-14T01:24:19.873Z,38.6
2018-03-14T01:25:19.892Z,38.62
2018-03-14T01:26:20.736Z,38.53
2018-03-14T01:27:19.898Z,38.63
2018-03-14T01:28:19.883Z,38.66
2018-03-14T01:29:19.918Z,38.58
2018-03-14T01:30:19.849Z,38.65
2018-03-14T01:31:19.854Z,38.67
2018-03-14T01:32:19.843Z,38.61
2018-03-14T01:33:19.860Z,38.68
2018-03-14T01:34:20.154Z,38.69
2018-03-14T01:35:19.870Z,38.59
2018-03-14T01:36:19.852Z,38.6
2018-03-14T01:37:19.882Z,38.67
2018-03-14T01:38:19.914Z,38.6
2018-03-14T01:39:19.911Z,38.66
2018-03-14T01:40:19.869Z,38.71
2018-03-14T01:41:20.340Z,38.6
2018-03-14T01:42:19.866Z,38.74
2018-03-14T01:43:19.866Z,38.72
2018-03-14T01:44:19.863Z,38.59
2018-03-14T01:45:19.884Z,38.56
2018-03-14T01:46:19.872Z,38.7
2018-03-14T01:47:19.886Z,38.63
2018-03-14T01:48:19.877Z,38.76
2018-03-14T01:49:20.587Z,38.61
2018-03-14T01:50:19.942Z,38.63
2018-03-14T01:51:19.854Z,38.63
2018-03-14T01:52:19.881Z,38.69
2018-03-14T01:53:19.902Z,38.62
2018-03-14T01:54:19.904Z,38.68
2018-03-14T01:55:19.887Z,38.74
2018-03-14T01:56:19.876Z,38.61
2018-03-14T01:57:19.876Z,38.6
2018-03-14T01:58:19.865Z,38.68
2018-03-14T01:59:19.845Z,38.64
2018-03-14T02:00:19.902Z,38.65
2018-03-14T02:01:19.874Z,38.63
2018-03-14T02:02:19.864Z,38.6
2018-03-14T02:03:19.837Z,38.66
2018-03-14T02:04:20.285Z,38.62
2018-03-14T02:05:19.876Z,38.57
2018-03-14T02:06:19.848Z,38.61
2018-03-14T02:07:19.852Z,38.6
2018-03-14T02:08:19.872Z,38.57
2018-03-14T02:09:19.864Z,38.54
2018-03-14T02:10:19.878Z,38.55
2018-03-14T02:11:19.831Z,38.52
2018-03-14T02:12:20.558Z,38.6
2018-03-14T02:13:19.857Z,38.62
2018-03-14T02:14:19.871Z,38.55
2018-03-14T02:15:20.100Z,38.54
2018-03-14T02:16:19.856Z,38.65
2018-03-14T02:17:19.847Z,38.5
2018-03-14T02:18:19.839Z,38.54
2018-03-14T02:19:19.864Z,38.62
2018-03-14T02:20:20.790Z,38.6
2018-03-14T02:21:19.839Z,38.69
2018-03-14T02:22:19.892Z,38.62
2018-03-14T02:23:19.869Z,38.57
2018-03-14T02:24:19.840Z,38.59
2018-03-14T02:25:19.905Z,38.67
2018-03-14T02:26:19.868Z,38.62
2018-03-14T02:27:19.879Z,38.67
2018-03-14T02:28:19.874Z,38.7
2018-03-14T02:29:19.858Z,38.61
2018-03-14T02:30:19.882Z,38.64
2018-03-14T02:31:19.854Z,38.68
2018-03-14T02:32:19.872Z,38.61
2018-03-14T02:33:19.828Z,38.63
2018-03-14T02:34:19.850Z,38.69
2018-03-14T02:35:20.492Z,38.59
2018-03-14T02:36:19.862Z,38.61
2018-03-14T02:37:19.873Z,38.64
2018-03-14T02:38:19.869Z,38.6
2018-03-14T02:39:19.836Z,38.66
2018-03-14T02:40:19.836Z,38.65
2018-03-14T02:41:20.124Z,38.58
2018-03-14T02:42:19.863Z,38.59
2018-03-14T02:43:20.793Z,38.71
2018-03-14T02:44:19.835Z,38.58
2018-03-14T02:45:19.855Z,38.68
2018-03-14T02:46:19.852Z,38.54
2018-03-14T02:47:19.845Z,38.55
2018-03-14T02:48:19.842Z,38.54
2018-03-14T02:49:19.829Z,38.58
2018-03-14T02:50:19.823Z,38.54
2018-03-14T02:51:19.821Z,38.55
2018-03-14T02:52:19.844Z,38.58
2018-03-14T02:53:20.085Z,38.49
2018-03-14T02:54:19.805Z,38.51
2018-03-14T02:55:19.825Z,38.6
2018-03-14T02:56:19.826Z,38.57
2018-03-14T02:57:19.819Z,38.55
2018-03-14T02:58:19.847Z,38.57
2018-03-14T02:59:19.812Z,38.53
2018-03-14T03:00:19.813Z,38.56
2018-03-14T03:01:19.824Z,38.65
2018-03-14T03:02:19.814Z,38.51
2018-03-14T03:03:19.804Z,38.6
2018-03-14T03:04:19.851Z,38.61
2018-03-14T03:05:19.803Z,38.58
2018-03-14T03:06:19.804Z,38.58
2018-03-14T03:07:19.834Z,38.57
2018-03-14T03:08:19.814Z,38.51
2018-03-14T03:09:19.826Z,38.64
2018-03-14T03:10:19.809Z,38.66
2018-03-14T03:11:19.838Z,38.63
2018-03-14T03:12:19.839Z,38.47
2018-03-14T03:13:19.809Z,38.62
2018-03-14T03:14:19.857Z,38.48
2018-03-14T03:15:19.810Z,38.58
2018-03-14T03:16:19.808Z,38.64
2018-03-14T03:17:19.839Z,38.55
2018-03-14T03:18:19.813Z,38.59
2018-03-14T03:19:19.853Z,38.55
2018-03-14T03:20:19.801Z,38.6
2018-03-14T03:21:19.814Z,38.54
2018-03-14T03:22:19.917Z,38.47
2018-03-14T03:23:19.901Z,38.56
2018-03-14T03:24:19.801Z,38.57
2018-03-14T03:25:19.827Z,38.58
2018-03-14T03:26:19.820Z,38.54
2018-03-14T03:27:19.803Z,38.64
2018-03-14T03:28:19.820Z,38.64
2018-03-14T03:29:19.809Z,38.57
2018-03-14T03:30:19.840Z,38.63
2018-03-14T03:31:19.826Z,38.59
2018-03-14T03:32:19.844Z,38.57
2018-03-14T03:33:19.833Z,38.57
2018-03-14T03:34:19.814Z,38.58
2018-03-14T03:35:19.826Z,38.49
2018-03-14T03:36:19.808Z,38.51
2018-03-14T03:37:19.811Z,38.5
2018-03-14T03:38:19.801Z,38.53
2018-03-14T03:39:19.823Z,38.55
2018-03-14T03:40:19.816Z,38.58
2018-03-14T03:41:19.793Z,38.58
2018-03-14T03:42:19.822Z,38.68
2018-03-14T03:43:19.809Z,38.6
2018-03-14T03:44:19.836Z,38.55
2018-03-14T03:45:19.789Z,38.55
2018-03-14T03:46:19.822Z,38.67
2018-03-14T03:47:19.825Z,38.53
2018-03-14T03:48:19.832Z,38.63
2018-03-14T03:49:19.804Z,38.62
2018-03-14T03:50:19.810Z,38.6
2018-03-14T03:51:19.832Z,38.61
2018-03-14T03:52:19.809Z,38.56
2018-03-14T03:53:19.785Z,38.62
2018-03-14T03:54:19.834Z,38.67
2018-03-14T03:55:19.810Z,38.56
2018-03-14T03:56:19.793Z,38.57
2018-03-14T03:57:19.841Z,38.64
2018-03-14T03:58:19.806Z,38.62
2018-03-14T03:59:19.818Z,38.65
2018-03-14T04:00:19.812Z,38.59
2018-03-14T04:01:19.805Z,38.53
2018-03-14T04:02:19.814Z,38.52
2018-03-14T04:03:19.780Z,38.59
2018-03-14T04:04:19.820Z,38.6
2018-03-14T04:05:19.811Z,38.6
2018-03-14T04:06:19.807Z,38.51
2018-03-14T04:07:19.806Z,38.5
2018-03-14T04:08:19.820Z,38.5
2018-03-14T04:09:19.838Z,38.49
2018-03-14T04:10:19.799Z,38.61
2018-03-14T04:11:19.784Z,38.57
2018-03-14T04:12:19.800Z,38.61
2018-03-14T04:13:19.790Z,38.63
2018-03-14T04:14:19.813Z,38.59
2018-03-14T04:15:19.787Z,38.59
2018-03-14T04:16:19.796Z,38.57
2018-03-14T04:17:19.787Z,38.59
2018-03-14T04:18:19.805Z,38.65
2018-03-14T04:19:20.094Z,38.59
2018-03-14T04:20:19.774Z,38.61
2018-03-14T04:21:19.786Z,38.61
2018-03-14T04:22:19.796Z,38.66
2018-03-14T04:23:19.803Z,38.68
2018-03-14T04:24:19.812Z,38.6
2018-03-14T04:25:19.789Z,38.59
2018-03-14T04:26:19.802Z,38.65
2018-03-14T04:27:19.777Z,38.66
2018-03-14T04:28:19.800Z,38.63
2018-03-14T04:29:19.776Z,38.61
2018-03-14T04:30:19.798Z,38.58
2018-03-14T04:31:19.829Z,38.64
2018-03-14T04:32:19.810Z,38.58
2018-03-14T04:33:19.832Z,38.55
2018-03-14T04:34:19.772Z,38.64
2018-03-14T04:35:19.795Z,38.59
2018-03-14T04:36:19.834Z,38.6
2018-03-14T04:37:19.836Z,38.66
2018-03-14T04:38:19.791Z,38.65
2018-03-14T04:39:19.805Z,38.56
2018-03-14T04:40:19.792Z,38.64
2018-03-14T04:41:19.803Z,38.64
2018-03-14T04:42:19.840Z,38.66
2018-03-14T04:43:19.790Z,38.69
2018-03-14T04:44:19.808Z,38.62
2018-03-14T04:45:19.800Z,38.61
2018-03-14T04:46:19.789Z,38.6
2018-03-14T04:47:19.829Z,38.55
2018-03-14T04:48:19.806Z,38.52
2018-03-14T04:49:19.817Z,38.49
2018-03-14T04:50:19.806Z,38.54
2018-03-14T04:51:19.776Z,38.58
2018-03-14T04:52:20.028Z,38.55
2018-03-14T04:53:19.778Z,38.6
2018-03-14T04:54:19.785Z,38.62
2018-03-14T04:55:19.786Z,38.71
2018-03-14T04:56:19.836Z,38.58
2018-03-14T04:57:19.917Z,38.61
2018-03-14T04:58:19.789Z,38.61
2018-03-14T04:59:19.792Z,38.67
2018-03-14T05:00:19.811Z,38.56
2018-03-14T05:01:19.787Z,38.77
2018-03-14T05:02:19.902Z,38.68
2018-03-14T05:03:19.824Z,38.7
2018-03-14T05:04:19.785Z,38.6
2018-03-14T05:05:19.780Z,38.66
2018-03-14T05:06:19.800Z,38.71
2018-03-14T05:07:19.822Z,38.67
2018-03-14T05:08:19.762Z,38.6
2018-03-14T05:09:19.829Z,38.61
2018-03-14T05:10:19.797Z,38.64
2018-03-14T05:11:19.792Z,38.55
2018-03-14T05:12:19.804Z,38.49
2018-03-14T05:13:19.789Z,38.58
2018-03-14T05:14:19.826Z,38.46
2018-03-14T05:15:19.812Z,38.37
2018-03-14T05:16:19.772Z,38.4
2018-03-14T05:17:19.739Z,38.37
2018-03-14T05:18:19.809Z,38.29
2018-03-14T05:19:19.815Z,38.32
2018-03-14T05:20:19.766Z,38.37
2018-03-14T05:21:19.780Z,38.33
2018-03-14T05:22:19.809Z,38.23
2018-03-14T05:23:19.873Z,38.3
2018-03-14T05:24:20.024Z,38.22
2018-03-14T05:25:19.777Z,38.24
2018-03-14T05:26:19.789Z,38.31
2018-03-14T05:27:19.780Z,38.18
2018-03-14T05:28:19.802Z,38.14
2018-03-14T05:29:19.820Z,38.23
2018-03-14T05:30:19.777Z,38.21
2018-03-14T05:31:19.779Z,38.33
2018-03-14T05:32:19.784Z,38.25
2018-03-14T05:33:19.787Z,38.34
2018-03-14T05:34:19.784Z,38.24
2018-03-14T05:35:19.789Z,38.23
2018-03-14T05:36:19.759Z,38.2
2018-03-14T05:37:19.776Z,38.36
2018-03-14T05:38:19.796Z,38.28
2018-03-14T05:39:19.785Z,38.33
2018-03-14T05:40:19.789Z,38.18
2018-03-14T05:41:19.789Z,38.13
2018-03-14T05:42:19.782Z,38.25
2018-03-14T05:43:19.770Z,38.3
2018-03-14T05:44:19.765Z,38.15
2018-03-14T05:45:19.813Z,38.05
2018-03-14T05:46:19.779Z,38.23
2018-03-14T05:47:19.789Z,38.41
2018-03-14T05:48:19.780Z,38.41
2018-03-14T05:49:19.778Z,38.38
2018-03-14T05:50:19.779Z,38.49
2018-03-14T05:51:19.774Z,38.31
2018-03-14T05:52:19.769Z,38.39
2018-03-14T05:53:19.763Z,38.31
2018-03-14T05:54:19.757Z,38.34
2018-03-14T05:55:20.010Z,38.29
2018-03-14T05:56:19.776Z,38.38
2018-03-14T05:57:19.765Z,38.31
2018-03-14T05:58:19.786Z,38.41
2018-03-14T05:59:19.740Z,38.28
2018-03-14T06:00:19.807Z,38.2
2018-03-14T06:01:19.776Z,38.17
2018-03-14T06:02:19.757Z,38.28
2018-03-14T06:03:19.748Z,38.11
2018-03-14T06:04:19.776Z,38.24
2018-03-14T06:05:19.841Z,38.33
2018-03-14T06:06:19.753Z,38.13
2018-03-14T06:07:19.769Z,38.27
2018-03-14T06:08:19.797Z,38.21
2018-03-14T06:09:19.784Z,38.2
2018-03-14T06:10:19.856Z,38.2
2018-03-14T06:11:19.753Z,38.21
2018-03-14T06:12:19.776Z,38.28
2018-03-14T06:13:19.759Z,38.24
2018-03-14T06:14:19.776Z,38.2
2018-03-14T06:15:19.804Z,38.17
2018-03-14T06:16:19.791Z,38.21
2018-03-14T06:17:19.742Z,38.19
2018-03-14T06:18:19.770Z,38.25
2018-03-14T06:19:19.757Z,38.23
2018-03-14T06:20:19.788Z,38.18
2018-03-14T06:21:19.754Z,38.13
2018-03-14T06:22:19.763Z,38.16
2018-03-14T06:23:19.739Z,38.17
2018-03-14T06:24:19.767Z,38.2
2018-03-14T06:25:19.746Z,38.23
2018-03-14T06:26:19.766Z,38.26
2018-03-14T06:27:19.739Z,38.18
2018-03-14T06:28:19.757Z,38.17
2018-03-14T06:29:19.769Z,38.17
2018-03-14T06:30:19.775Z,38.15
2018-03-14T06:31:19.758Z,38.21
2018-03-14T06:32:19.762Z,38.25
2018-03-14T06:33:19.740Z,38.21
2018-03-14T06:34:19.756Z,38.14
2018-03-14T06:35:19.792Z,38.23
2018-03-14T06:36:19.768Z,38.26
2018-03-14T06:37:19.749Z,38.26
2018-03-14T06:38:19.763Z,38.25
2018-03-14T06:39:19.753Z,38.19
2018-03-14T06:40:19.750Z,38.26
2018-03-14T06:41:19.741Z,38.21
2018-03-14T06:42:19.761Z,38.25
2018-03-14T06:43:19.758Z,38.23
2018-03-14T06:44:19.741Z,38.22
2018-03-14T06:45:19.748Z,38.23
2018-03-14T06:46:19.760Z,38.25
2018-03-14T06:47:19.758Z,38.23
2018-03-14T06:48:19.732Z,38.23
2018-03-14T06:49:19.745Z,38.21
2018-03-14T06:50:19.768Z,38.2
2018-03-14T06:51:19.764Z,38.2
2018-03-14T06:52:19.775Z,38.22
2018-03-14T06:53:19.757Z,38.26
2018-03-14T06:54:19.759Z,38.2
2018-03-14T06:55:19.766Z,38.21
2018-03-14T06:56:19.766Z,38.16
2018-03-14T06:57:19.743Z,38.21
2018-03-14T06:58:19.776Z,38.19
2018-03-14T06:59:19.729Z,38.16
2018-03-14T07:00:19.765Z,38.21
2018-03-14T07:01:19.750Z,38.16
2018-03-14T07:02:19.755Z,38.21
2018-03-14T07:03:19.758Z,38.16
2018-03-14T07:04:19.745Z,38.16
2018-03-14T07:05:19.732Z,38.2
2018-03-14T07:06:19.760Z,38.1
2018-03-14T07:07:19.777Z,38.16
2018-03-14T07:08:19.732Z,38.19
2018-03-14T07:09:19.932Z,38.17
2018-03-14T07:10:19.741Z,38.18
2018-03-14T07:11:19.765Z,38.24
2018-03-14T07:12:19.745Z,38.07
2018-03-14T07:13:19.741Z,38.18
2018-03-14T07:14:19.783Z,38.12
2018-03-14T07:15:19.758Z,38.09
2018-03-14T07:16:19.735Z,38.12
2018-03-14T07:17:19.751Z,38.07
2018-03-14T07:18:19.745Z,38.17
2018-03-14T07:19:19.775Z,38.12
2018-03-14T07:20:19.725Z,38.18
2018-03-14T07:21:19.750Z,38.13
2018-03-14T07:22:19.740Z,38.17
2018-03-14T07:23:19.745Z,38.17
2018-03-14T07:24:19.670Z,38.19
2018-03-14T07:25:19.843Z,38.14
2018-03-14T07:26:19.724Z,38.13
2018-03-14T07:27:19.724Z,38.11
2018-03-14T07:28:19.731Z,38.07
2018-03-14T07:29:19.722Z,38.12
2018-03-14T07:30:19.724Z,38.11
2018-03-14T07:31:19.741Z,38.02
2018-03-14T07:32:19.756Z,38.13
2018-03-14T07:33:19.738Z,38.13
2018-03-14T07:34:19.739Z,38.07
2018-03-14T07:35:19.726Z,38.07
2018-03-14T07:36:19.728Z,38.11
2018-03-14T07:37:19.729Z,38.2
2018-03-14T07:38:19.743Z,38.12
2018-03-14T07:39:19.721Z,38.13
2018-03-14T07:40:19.704Z,38.12
2018-03-14T07:41:19.728Z,38.13
2018-03-14T07:42:19.706Z,38.15
2018-03-14T07:43:19.767Z,38.11
2018-03-14T07:44:19.720Z,38.13
2018-03-14T07:45:19.732Z,38.12
2018-03-14T07:46:19.736Z,38.13
2018-03-14T07:47:19.715Z,38.1
2018-03-14T07:48:19.733Z,38.08
2018-03-14T07:49:19.738Z,38.04
2018-03-14T07:50:19.725Z,38.06
2018-03-14T07:51:19.749Z,38.09
2018-03-14T07:52:19.732Z,38.15
2018-03-14T07:53:19.862Z,38.1
2018-03-14T07:54:19.721Z,38.08
2018-03-14T07:55:19.725Z,38.08
2018-03-14T07:56:19.708Z,38.08
2018-03-14T07:57:19.706Z,38.1
2018-03-14T07:58:19.766Z,38.11
2018-03-14T07:59:19.728Z,38.03
2018-03-14T08:00:19.712Z,37.99
2018-03-14T08:01:19.737Z,38.07
2018-03-14T08:02:19.724Z,38.03
2018-03-14T08:03:19.714Z,38.07
2018-03-14T08:04:19.747Z,38.06
2018-03-14T08:05:19.710Z,38.06
2018-03-14T08:06:19.745Z,38.1
2018-03-14T08:07:19.753Z,38.07
2018-03-14T08:08:19.712Z,37.97
2018-03-14T08:09:19.723Z,38.02
2018-03-14T08:10:19.726Z,37.96
2018-03-14T08:11:19.734Z,38.04
2018-03-14T08:12:19.729Z,38.05
2018-03-14T08:13:19.781Z,38.02
2018-03-14T08:14:19.703Z,38.02
2018-03-14T08:15:19.707Z,38.07
2018-03-14T08:16:19.721Z,38.07
2018-03-14T08:17:19.717Z,38.03
2018-03-14T08:18:19.725Z,38.07
2018-03-14T08:19:19.724Z,38.01
2018-03-14T08:20:19.801Z,38.04
2018-03-14T08:21:19.742Z,38.04
2018-03-14T08:22:19.732Z,38.06
2018-03-14T08:23:19.772Z,38.04
2018-03-14T08:24:19.738Z,37.99
2018-03-14T08:25:19.727Z,38.05
2018-03-14T08:26:19.706Z,37.96
2018-03-14T08:27:19.728Z,38
2018-03-14T08:28:19.754Z,37.99
2018-03-14T08:29:19.717Z,38.02
2018-03-14T08:30:19.728Z,38.02
2018-03-14T08:31:19.723Z,37.93
2018-03-14T08:32:19.727Z,37.96
2018-03-14T08:33:19.706Z,38
2018-03-14T08:34:19.776Z,38.03
2018-03-14T08:35:19.728Z,37.96
2018-03-14T08:36:19.700Z,37.93
2018-03-14T08:37:19.729Z,37.96
2018-03-14T08:38:19.728Z,37.99
2018-03-14T08:39:19.702Z,37.93
2018-03-14T08:40:19.724Z,37.98
2018-03-14T08:41:19.693Z,37.99
2018-03-14T08:42:19.706Z,37.89
2018-03-14T08:43:19.715Z,37.94
2018-03-14T08:44:19.729Z,37.89
2018-03-14T08:45:19.721Z,37.91
2018-03-14T08:46:19.713Z,37.9
2018-03-14T08:47:19.694Z,37.88
2018-03-14T08:48:19.721Z,37.86
2018-03-14T08:49:19.745Z,37.82
2018-03-14T08:50:19.797Z,37.87
2018-03-14T08:51:19.720Z,37.91
2018-03-14T08:52:19.701Z,37.9
2018-03-14T08:53:19.694Z,37.9
2018-03-14T08:54:19.810Z,37.87
2018-03-14T08:55:19.710Z,37.9
2018-03-14T08:56:19.705Z,37.84
2018-03-14T08:57:19.721Z,37.87
2018-03-14T08:58:19.718Z,37.88
2018-03-14T08:59:19.932Z,37.89
2018-03-14T09:00:19.686Z,37.83
2018-03-14T09:01:19.714Z,37.89
2018-03-14T09:02:19.688Z,37.83
2018-03-14T09:03:19.718Z,37.86
2018-03-14T09:04:19.732Z,37.85
2018-03-14T09:05:19.720Z,37.83
2018-03-14T09:06:19.707Z,37.91
2018-03-14T09:07:19.779Z,37.87
2018-03-14T09:08:19.716Z,37.88
2018-03-14T09:09:19.754Z,37.85
2018-03-14T09:10:19.708Z,37.85
2018-03-14T09:11:19.696Z,37.84
2018-03-14T09:12:19.692Z,37.82
2018-03-14T09:13:19.700Z,37.81
2018-03-14T09:14:19.833Z,37.79
2018-03-14T09:15:19.696Z,37.83
2018-03-14T09:16:19.714Z,37.86
2018-03-14T09:17:19.706Z,37.89
2018-03-14T09:18:19.680Z,37.84
2018-03-14T09:19:19.937Z,37.8
2018-03-14T09:20:19.683Z,37.83
2018-03-14T09:21:19.768Z,37.85
2018-03-14T09:22:19.702Z,37.85
2018-03-14T09:23:19.766Z,37.81
2018-03-14T09:24:19.717Z,37.82
2018-03-14T09:25:19.798Z,37.79
2018-03-14T09:26:19.778Z,37.81
2018-03-14T09:27:19.725Z,37.8
2018-03-14T09:28:19.693Z,37.76
2018-03-14T09:29:19.708Z,37.8
2018-03-14T09:30:19.697Z,37.81
2018-03-14T09:31:19.699Z,37.79
2018-03-14T09:32:19.679Z,37.85
2018-03-14T09:33:19.823Z,37.84
2018-03-14T09:34:19.718Z,37.82
2018-03-14T09:35:19.691Z,37.8
2018-03-14T09:36:19.704Z,37.83
2018-03-14T09:37:19.700Z,37.79
2018-03-14T09:38:19.702Z,37.81
2018-03-14T09:39:19.717Z,37.79
2018-03-14T09:40:19.702Z,37.76
2018-03-14T09:41:19.683Z,37.82
2018-03-14T09:42:19.716Z,37.73
2018-03-14T09:43:19.685Z,37.78
2018-03-14T09:44:19.726Z,37.76
2018-03-14T09:45:19.796Z,37.83
2018-03-14T09:46:19.704Z,37.78
2018-03-14T09:47:19.714Z,37.83
2018-03-14T09:48:19.685Z,37.79
2018-03-14T09:49:19.704Z,37.82
2018-03-14T09:50:19.682Z,37.77
2018-03-14T09:51:19.686Z,37.83
2018-03-14T09:52:19.708Z,37.77
2018-03-14T09:53:19.670Z,37.82
2018-03-14T09:54:19.669Z,37.8
2018-03-14T09:55:19.716Z,37.85
2018-03-14T09:56:19.708Z,37.8
2018-03-14T09:57:19.673Z,37.82
2018-03-14T09:58:19.694Z,37.8
2018-03-14T09:59:19.722Z,37.79
2018-03-14T10:00:19.732Z,37.78
2018-03-14T10:01:19.690Z,37.73
2018-03-14T10:02:19.743Z,37.76
2018-03-14T10:03:19.674Z,37.78
2018-03-14T10:04:19.685Z,37.71
2018-03-14T10:05:19.703Z,37.83
2018-03-14T10:06:19.780Z,37.72
2018-03-14T10:07:19.698Z,37.72
2018-03-14T10:08:19.680Z,37.78
2018-03-14T10:09:19.672Z,37.72
2018-03-14T10:10:19.682Z,37.77
2018-03-14T10:11:19.703Z,37.77
2018-03-14T10:12:19.744Z,37.69
2018-03-14T10:13:19.691Z,37.76
2018-03-14T10:14:19.674Z,37.75
2018-03-14T10:15:19.680Z,37.7
2018-03-14T10:16:19.695Z,37.71
2018-03-14T10:17:19.693Z,37.71
2018-03-14T10:18:19.669Z,37.68
2018-03-14T10:19:19.755Z,37.73
2018-03-14T10:20:19.694Z,37.68
2018-03-14T10:21:19.701Z,37.59
2018-03-14T10:22:19.786Z,37.76
2018-03-14T10:23:19.674Z,37.81
2018-03-14T10:24:19.672Z,37.7
2018-03-14T10:25:19.671Z,37.77
2018-03-14T10:26:19.696Z,37.77
2018-03-14T10:27:19.693Z,37.79
2018-03-14T10:28:19.671Z,37.77
2018-03-14T10:29:19.685Z,37.8
2018-03-14T10:30:19.688Z,37.86
2018-03-14T10:31:19.687Z,37.86
2018-03-14T10:32:19.695Z,38.04
2018-03-14T10:33:19.765Z,37.94
2018-03-14T10:34:19.696Z,37.94
2018-03-14T10:35:19.794Z,38.03
2018-03-14T10:36:19.707Z,37.88
2018-03-14T10:37:19.713Z,37.97
2018-03-14T10:38:19.951Z,38.04
2018-03-14T10:39:19.691Z,38.28
2018-03-14T10:40:19.675Z,38.49
2018-03-14T10:41:19.664Z,38.51
2018-03-14T10:42:19.677Z,38.81
2018-03-14T10:43:19.706Z,38.59
2018-03-14T10:44:19.662Z,38.8
2018-03-14T10:45:19.687Z,38.8
2018-03-14T10:46:19.665Z,38.73
2018-03-14T10:47:19.675Z,38.69
2018-03-14T10:48:19.712Z,38.72
2018-03-14T10:49:19.688Z,38.79
2018-03-14T10:50:19.669Z,38.68
2018-03-14T10:51:19.658Z,38.7
2018-03-14T10:52:19.681Z,38.76
2018-03-14T10:53:19.788Z,38.67
2018-03-14T10:54:19.671Z,38.5
2018-03-14T10:55:19.683Z,38.62
2018-03-14T10:56:19.654Z,38.5
2018-03-14T10:57:19.687Z,38.33
2018-03-14T10:58:19.704Z,38.24
2018-03-14T10:59:19.678Z,38.29
2018-03-14T11:00:19.660Z,38.26
2018-03-14T11:01:19.662Z,38.2
2018-03-14T11:02:19.670Z,38.18
2018-03-14T11:03:19.682Z,38.15
2018-03-14T11:04:19.694Z,38.11
2018-03-14T11:05:19.663Z,38.14
2018-03-14T11:06:19.685Z,37.99
2018-03-14T11:07:19.681Z,38.08
2018-03-14T11:08:19.715Z,37.97
2018-03-14T11:09:19.672Z,37.96
2018-03-14T11:10:19.703Z,37.98
2018-03-14T11:11:19.642Z,37.98
2018-03-14T11:12:19.651Z,37.99
2018-03-14T11:13:19.657Z,37.93
2018-03-14T11:14:19.684Z,37.91
2018-03-14T11:15:19.700Z,37.87
2018-03-14T11:16:19.666Z,37.88
2018-03-14T11:17:19.649Z,37.9
2018-03-14T11:18:19.679Z,37.89
2018-03-14T11:19:19.683Z,37.84
2018-03-14T11:20:19.874Z,37.92
2018-03-14T11:21:19.668Z,37.79
2018-03-14T11:22:19.664Z,37.79
2018-03-14T11:23:19.644Z,37.81
2018-03-14T11:24:19.666Z,37.82
2018-03-14T11:25:19.679Z,37.87
2018-03-14T11:26:19.767Z,37.84
2018-03-14T11:27:19.774Z,37.86
2018-03-14T11:28:19.670Z,37.9
2018-03-14T11:29:19.671Z,37.83
2018-03-14T11:30:19.717Z,37.87
2018-03-14T11:31:19.654Z,37.83
2018-03-14T11:32:19.650Z,37.88
2018-03-14T11:33:19.698Z,37.8
2018-03-14T11:34:19.670Z,37.87
2018-03-14T11:35:19.679Z,37.81
2018-03-14T11:36:19.650Z,37.8
2018-03-14T11:37:19.667Z,37.79
2018-03-14T11:38:19.644Z,37.8
2018-03-14T11:39:19.666Z,37.79
2018-03-14T11:40:19.684Z,37.83
2018-03-14T11:41:19.658Z,37.8
2018-03-14T11:42:19.779Z,37.79
2018-03-14T11:43:19.686Z,37.71
2018-03-14T11:44:19.664Z,37.79
2018-03-14T11:45:19.639Z,37.78
2018-03-14T11:46:19.655Z,37.78
2018-03-14T11:47:19.673Z,37.78
2018-03-14T11:48:19.677Z,37.71
2018-03-14T11:49:19.659Z,37.78
2018-03-14T11:50:19.637Z,37.76
2018-03-14T11:51:19.648Z,37.72
2018-03-14T11:52:19.694Z,37.75
2018-03-14T11:53:19.640Z,37.73
2018-03-14T11:54:19.671Z,37.79
2018-03-14T11:55:19.652Z,37.8
2018-03-14T11:56:19.658Z,37.71
2018-03-14T11:57:19.797Z,37.78
2018-03-14T11:58:19.657Z,37.79
2018-03-14T11:59:19.691Z,37.72
2018-03-14T12:00:19.665Z,37.75
2018-03-14T12:01:19.665Z,37.75
2018-03-14T12:02:19.660Z,37.67
2018-03-14T12:03:19.665Z,37.71
2018-03-14T12:04:19.659Z,37.67
2018-03-14T12:05:19.640Z,37.67
2018-03-14T12:06:19.633Z,37.63
2018-03-14T12:07:19.652Z,37.61
2018-03-14T12:08:19.667Z,37.61
2018-03-14T12:09:19.633Z,37.71
2018-03-14T12:10:19.753Z,37.73
2018-03-14T12:11:19.656Z,37.67
2018-03-14T12:12:19.772Z,37.7
2018-03-14T12:13:19.666Z,37.74
2018-03-14T12:14:19.668Z,37.67
2018-03-14T12:15:19.622Z,37.59
2018-03-14T12:16:19.649Z,37.66
2018-03-14T12:17:19.629Z,37.68
2018-03-14T12:18:19.687Z,37.58
2018-03-14T12:19:19.621Z,37.66
2018-03-14T12:20:19.654Z,37.64
2018-03-14T12:21:19.634Z,37.64
2018-03-14T12:22:19.664Z,37.75
2018-03-14T12:23:19.678Z,37.63
2018-03-14T12:24:19.633Z,37.68
2018-03-14T12:25:19.638Z,37.63
2018-03-14T12:26:19.746Z,37.65
2018-03-14T12:27:19.626Z,37.65
2018-03-14T12:28:20.203Z,37.62
2018-03-14T12:29:19.677Z,37.62
2018-03-14T12:30:19.817Z,37.63
2018-03-14T12:31:19.646Z,37.63
2018-03-14T12:32:19.660Z,37.56
2018-03-14T12:33:19.648Z,37.6
2018-03-14T12:34:19.672Z,37.54
2018-03-14T12:35:19.654Z,37.57
2018-03-14T12:36:19.624Z,37.6
2018-03-14T12:37:19.656Z,37.64
2018-03-14T12:38:19.627Z,37.59
2018-03-14T12:39:20.046Z,37.61
2018-03-14T12:40:19.638Z,37.6
2018-03-14T12:41:19.622Z,37.6
2018-03-14T12:42:19.649Z,37.59
2018-03-14T12:43:19.639Z,37.58
2018-03-14T12:44:19.648Z,37.58
2018-03-14T12:45:19.644Z,37.68
2018-03-14T12:46:19.638Z,37.67
2018-03-14T12:47:19.620Z,37.6
2018-03-14T12:48:19.648Z,37.55
2018-03-14T12:49:19.673Z,37.6
2018-03-14T12:50:19.631Z,37.54
2018-03-14T12:51:19.651Z,37.61
2018-03-14T12:52:19.647Z,37.61
2018-03-14T12:53:19.637Z,37.58
2018-03-14T12:54:19.638Z,37.59
2018-03-14T12:55:19.651Z,37.55